createdAt,value
2022-12-25T00:00:53.378Z,31.13
2022-12-25T00:01:53.271Z,30.50
2022-12-25T00:02:53.317Z,29.74
2022-12-25T00:03:53.511Z,28.40
2022-12-25T00:04:53.234Z,29.27
2022-12-25T00:05:53.223Z,27.98
2022-12-25T00:06:53.218Z,28.01
2022-12-25T00:07:53.200Z,25.00
2022-12-25T00:08:53.179Z,28.54
2022-12-25T00:09:53.177Z,28.55
2022-12-25T00:10:53.166Z,30.53
2022-12-25T00:11:53.153Z,28.43
2022-12-25T00:12:53.147Z,29.22
2022-12-25T00:13:53.131Z,29.13
2022-12-25T00:14:53.145Z,26.79
2022-12-25T00:15:53.130Z,28.38
2022-12-25T00:16:53.082Z,27.67
2022-12-25T00:17:53.086Z,27.41
2022-12-25T00:18:53.084Z,29.33
2022-12-25T00:19:53.054Z,27.76
2022-12-25T00:20:53.050Z,27.46
2022-12-25T00:21:53.012Z,24.64
2022-12-25T00:22:53.565Z,28.78
2022-12-25T00:23:53.028Z,29.55
2022-12-25T00:24:52.994Z,29.38
2022-12-25T00:25:52.984Z,29.41
2022-12-25T00:26:52.975Z,29.83
2022-12-25T00:27:52.963Z,28.38
2022-12-25T00:28:52.953Z,28.14
2022-12-25T00:29:52.958Z,26.38
2022-12-25T00:30:52.937Z,26.86
2022-12-25T00:31:52.989Z,26.49
2022-12-25T00:32:52.917Z,26.57
2022-12-25T00:33:52.901Z,27.54
2022-12-25T00:34:52.893Z,27.28
2022-12-25T00:35:52.863Z,29.44
2022-12-25T00:36:52.846Z,28.49
2022-12-25T00:37:52.829Z,27.59
2022-12-25T00:38:52.864Z,30.00
2022-12-25T00:39:52.813Z,28.40
2022-12-25T00:40:52.800Z,28.91
2022-12-25T00:41:52.776Z,31.03
2022-12-25T00:42:52.771Z,30.16
2022-12-25T00:43:52.750Z,30.33
2022-12-25T00:44:52.741Z,29.20
2022-12-25T00:45:52.802Z,29.42
2022-12-25T00:46:52.792Z,29.42
2022-12-25T00:47:52.708Z,29.31
2022-12-25T00:48:52.756Z,29.46
2022-12-25T00:49:52.717Z,28.49
2022-12-25T00:50:52.678Z,27.65
2022-12-25T00:51:52.678Z,27.64
2022-12-25T00:52:52.680Z,28.60
2022-12-25T00:53:52.662Z,29.32
2022-12-25T00:54:52.678Z,28.39
2022-12-25T01:35:52.442Z,27.55
2022-12-25T02:28:52.141Z,30.19
2022-12-25T02:29:52.137Z,29.00
2022-12-25T02:30:52.136Z,27.51
2022-12-25T02:31:52.177Z,27.77
2022-12-25T02:32:52.133Z,28.18
2022-12-25T02:33:52.118Z,27.52
2022-12-25T02:34:52.122Z,28.22
2022-12-25T02:35:52.114Z,27.62
2022-12-25T02:36:52.108Z,25.00
2022-12-25T02:37:52.111Z,26.76
2022-12-25T02:38:52.085Z,29.15
2022-12-25T02:39:52.078Z,25.74
2022-12-25T02:40:52.071Z,26.54
2022-12-25T02:41:52.073Z,25.00
2022-12-25T02:42:52.051Z,25.96
2022-12-25T02:43:52.047Z,28.15
2022-12-25T02:44:52.043Z,26.32
2022-12-25T02:45:52.111Z,28.01
2022-12-25T02:46:52.056Z,27.24
2022-12-25T02:47:52.075Z,25.88
2022-12-25T02:48:52.036Z,27.41
2022-12-25T02:49:52.046Z,28.08
2022-12-25T02:50:52.037Z,26.49
2022-12-25T02:51:52.036Z,28.21
2022-12-25T02:52:52.030Z,26.32
2022-12-25T02:53:52.038Z,27.14
2022-12-25T02:54:52.040Z,27.16
2022-12-25T02:55:52.035Z,28.75
2022-12-25T02:56:52.034Z,30.55
2022-12-25T02:57:52.017Z,32.82
2022-12-25T02:58:52.016Z,27.28
2022-12-25T02:59:52.026Z,28.98
2022-12-25T03:00:52.029Z,25.93
2022-12-25T03:01:52.131Z,29.38
2022-12-25T03:02:52.053Z,30.58
2022-12-25T03:03:52.004Z,26.84
2022-12-25T03:04:51.991Z,28.62
2022-12-25T03:05:51.976Z,28.33
2022-12-25T03:06:51.962Z,28.15
2022-12-25T03:07:51.968Z,27.45
2022-12-25T03:08:51.961Z,25.68
2022-12-25T03:09:51.952Z,29.25
2022-12-25T03:10:51.939Z,26.69
2022-12-25T03:11:51.935Z,27.85
2022-12-25T03:12:51.933Z,27.34
2022-12-25T03:13:51.924Z,31.41
2022-12-25T03:14:51.945Z,28.91
2022-12-25T03:15:51.934Z,28.79
2022-12-25T03:16:52.018Z,28.27
2022-12-25T03:17:51.938Z,31.49
2022-12-25T03:18:51.939Z,30.40
2022-12-25T03:19:51.918Z,29.81
2022-12-25T03:20:51.918Z,27.84
2022-12-25T03:21:51.916Z,28.40
2022-12-25T03:22:51.936Z,28.96
2022-12-25T03:23:51.908Z,27.91
2022-12-25T03:24:51.911Z,26.17
2022-12-25T03:25:51.904Z,27.19
2022-12-25T03:26:51.890Z,29.81
2022-12-25T03:27:51.885Z,29.97
2022-12-25T03:28:51.877Z,29.49
2022-12-25T03:29:51.877Z,29.33
2022-12-25T03:30:51.903Z,29.82
2022-12-25T03:31:51.886Z,30.00
2022-12-25T03:32:51.858Z,29.00
2022-12-25T03:33:51.852Z,29.93
2022-12-25T03:34:51.838Z,31.74
2022-12-25T03:35:51.867Z,31.83
2022-12-25T03:36:51.845Z,32.01
2022-12-25T03:37:51.865Z,32.07
2022-12-25T04:51:51.239Z,29.63
2022-12-25T04:52:51.231Z,28.41
2022-12-25T04:53:51.250Z,30.73
2022-12-25T04:54:51.227Z,30.94
2022-12-25T04:55:51.256Z,28.07
2022-12-25T04:56:51.238Z,29.82
2022-12-25T04:57:51.222Z,27.96
2022-12-25T04:58:51.204Z,29.08
2022-12-25T04:59:51.213Z,29.21
2022-12-25T05:00:51.260Z,26.48
2022-12-25T05:01:51.292Z,28.57
2022-12-25T05:02:51.456Z,29.95
2022-12-25T05:03:51.293Z,28.45
2022-12-25T05:04:51.187Z,28.29
2022-12-25T05:05:51.164Z,27.90
2022-12-25T05:06:51.133Z,28.77
2022-12-25T05:07:51.117Z,27.42
2022-12-25T05:08:51.107Z,30.22
2022-12-25T05:09:51.097Z,28.11
2022-12-25T05:10:51.075Z,28.39
2022-12-25T05:11:51.074Z,29.20
2022-12-25T05:12:51.085Z,26.88
2022-12-25T05:13:51.051Z,29.46
2022-12-25T05:14:51.050Z,30.87
2022-12-25T05:15:51.070Z,28.50
2022-12-25T05:16:51.019Z,27.79
2022-12-25T05:17:51.033Z,28.06
2022-12-25T05:18:51.103Z,28.24
2022-12-25T05:19:50.998Z,27.65
2022-12-25T05:20:50.998Z,27.95
2022-12-25T05:21:51.069Z,28.32
2022-12-25T05:22:50.982Z,30.54
2022-12-25T05:23:50.978Z,30.41
2022-12-25T05:24:50.979Z,28.97
2022-12-25T05:25:50.976Z,29.08
2022-12-25T05:26:50.975Z,28.47
2022-12-25T05:27:53.995Z,27.65
2022-12-25T05:28:50.965Z,31.57
2022-12-25T05:29:50.955Z,26.14
2022-12-25T05:30:50.942Z,28.51
2022-12-25T05:31:51.006Z,29.91
2022-12-25T05:32:50.922Z,28.75
2022-12-25T05:33:50.911Z,29.34
2022-12-25T05:34:50.889Z,28.45
2022-12-25T05:35:50.896Z,28.50
2022-12-25T05:36:50.889Z,29.35
2022-12-25T05:37:50.871Z,29.54
2022-12-25T05:38:50.874Z,28.64
2022-12-25T05:39:50.873Z,28.45
2022-12-25T05:40:50.845Z,28.21
2022-12-25T05:41:50.840Z,29.96
2022-12-25T05:42:50.844Z,27.89
2022-12-25T05:43:50.827Z,28.85
2022-12-25T05:44:50.827Z,30.30
2022-12-25T05:45:50.809Z,30.33
2022-12-25T05:46:50.934Z,28.85
2022-12-25T05:47:50.801Z,30.19
2022-12-25T05:48:50.779Z,31.25
2022-12-25T05:49:50.784Z,30.31
2022-12-25T05:50:50.752Z,30.75
2022-12-25T05:51:50.749Z,31.10
2022-12-25T05:52:50.743Z,31.33
2022-12-25T05:53:50.733Z,31.18
2022-12-25T05:54:50.730Z,31.41
2022-12-25T05:55:50.761Z,29.73
2022-12-25T05:56:50.700Z,32.04
2022-12-25T05:57:50.689Z,29.34
2022-12-25T05:58:50.679Z,28.12
2022-12-25T05:59:50.667Z,30.13
2022-12-25T06:00:50.654Z,31.70
2022-12-25T06:01:50.727Z,30.22
2022-12-25T06:02:50.766Z,29.64
2022-12-25T06:03:50.709Z,31.99
2022-12-25T06:04:50.625Z,31.87
2022-12-25T06:05:50.615Z,31.83
2022-12-25T06:06:50.603Z,30.68
2022-12-25T06:07:50.607Z,31.82
2022-12-25T06:08:50.586Z,32.24
2022-12-25T06:09:50.570Z,30.88
2022-12-25T06:10:50.581Z,31.55
2022-12-25T06:11:50.560Z,31.74
2022-12-25T06:12:50.580Z,30.61
2022-12-25T06:13:50.525Z,30.52
2022-12-25T06:14:50.524Z,31.27
2022-12-25T06:15:50.559Z,31.20
2022-12-25T06:16:50.560Z,31.90
2022-12-25T06:17:50.507Z,30.70
2022-12-25T06:18:50.476Z,29.24
2022-12-25T06:19:50.461Z,31.62
2022-12-25T06:20:50.452Z,31.58
2022-12-25T06:21:50.449Z,31.33
2022-12-25T06:22:50.456Z,32.14
2022-12-25T06:23:50.663Z,30.61
2022-12-25T06:24:50.452Z,30.27
2022-12-25T06:25:50.425Z,31.06
2022-12-25T06:26:50.420Z,28.64
2022-12-25T06:38:50.393Z,28.43
2022-12-25T06:39:50.384Z,28.47
2022-12-25T06:40:50.386Z,28.40
2022-12-25T06:41:50.369Z,28.86
2022-12-25T06:42:50.365Z,29.35
2022-12-25T06:43:50.368Z,29.77
2022-12-25T06:44:50.354Z,28.84
2022-12-25T06:45:50.403Z,29.39
2022-12-25T06:46:50.352Z,29.39
2022-12-25T06:47:50.343Z,28.93
2022-12-25T06:48:50.363Z,31.27
2022-12-25T06:49:50.326Z,29.61
2022-12-25T06:50:50.332Z,28.54
2022-12-25T06:51:50.306Z,31.83
2022-12-25T06:52:50.307Z,29.80
2022-12-25T06:53:50.314Z,30.41
2022-12-25T06:54:50.283Z,29.54
2022-12-25T06:55:50.271Z,28.71
2022-12-25T06:56:50.273Z,28.63
2022-12-25T06:57:50.271Z,27.17
2022-12-25T06:58:50.270Z,28.88
2022-12-25T06:59:55.084Z,26.94
2022-12-25T07:00:51.313Z,27.30
2022-12-25T07:01:50.453Z,27.60
2022-12-25T07:02:50.435Z,27.74
2022-12-25T07:03:50.245Z,28.06
2022-12-25T07:04:50.229Z,30.22
2022-12-25T07:05:50.219Z,28.02
2022-12-25T07:06:50.213Z,30.06
2022-12-25T07:07:50.192Z,26.47
2022-12-25T07:08:50.214Z,28.43
2022-12-25T07:09:50.186Z,30.12
2022-12-25T07:10:50.189Z,31.82
2022-12-25T07:11:50.187Z,29.04
2022-12-25T07:12:50.166Z,28.90
2022-12-25T07:13:50.157Z,29.43
2022-12-25T07:14:50.364Z,29.02
2022-12-25T07:15:50.162Z,28.92
2022-12-25T07:16:50.201Z,28.89
2022-12-25T07:17:50.175Z,28.63
2022-12-25T07:18:50.163Z,28.16
2022-12-25T07:19:50.148Z,29.31
2022-12-25T07:20:50.153Z,28.03
2022-12-25T07:21:50.171Z,30.27
2022-12-25T07:22:50.729Z,29.94
2022-12-25T07:23:50.148Z,30.88
2022-12-25T07:24:50.147Z,30.91
2022-12-25T07:25:50.141Z,28.99
2022-12-25T07:26:50.147Z,27.81
2022-12-25T07:27:50.147Z,28.73
2022-12-25T07:28:50.140Z,27.85
2022-12-25T07:29:50.134Z,27.45
2022-12-25T07:30:50.137Z,30.67
2022-12-25T07:31:50.177Z,29.95
2022-12-25T07:32:50.460Z,28.62
2022-12-25T07:33:50.119Z,32.06
2022-12-25T07:34:50.107Z,30.28
2022-12-25T07:35:50.106Z,29.57
2022-12-25T07:36:50.136Z,31.37
2022-12-25T07:37:50.108Z,28.43
2022-12-25T07:38:50.121Z,29.65
2022-12-25T07:39:50.100Z,32.18
2022-12-25T07:40:50.099Z,29.10
2022-12-25T07:41:50.100Z,28.18
2022-12-25T07:45:50.099Z,31.30
2022-12-25T11:02:47.185Z,57.62
2022-12-25T11:03:46.997Z,57.67
2022-12-25T11:04:46.927Z,57.58
2022-12-25T11:05:46.884Z,57.53
2022-12-25T11:06:46.847Z,56.94
2022-12-25T11:07:46.916Z,58.38
2022-12-25T11:08:46.793Z,60.05
2022-12-25T11:09:46.766Z,60.00
2022-12-25T11:10:46.739Z,58.08
2022-12-25T11:11:46.706Z,58.22
2022-12-25T11:12:46.678Z,58.42
2022-12-25T11:13:46.655Z,57.94
2022-12-25T11:14:46.612Z,57.01
2022-12-25T11:15:46.610Z,58.35
2022-12-25T11:16:46.577Z,57.61
2022-12-25T11:17:46.527Z,57.45
2022-12-25T11:18:46.495Z,58.27
2022-12-25T11:19:46.473Z,56.56
2022-12-25T11:20:47.263Z,57.73
2022-12-25T11:21:46.418Z,53.61
2022-12-25T11:22:46.370Z,55.75
2022-12-25T11:23:46.344Z,57.14
2022-12-25T11:24:46.321Z,55.01
2022-12-25T11:25:46.275Z,57.15
2022-12-25T11:26:46.245Z,57.94
2022-12-25T11:27:50.331Z,57.20
2022-12-25T11:28:47.178Z,57.40
2022-12-25T11:29:46.156Z,57.49
2022-12-25T11:30:46.146Z,57.46
2022-12-25T11:31:46.120Z,53.89
2022-12-25T11:32:46.048Z,54.81
2022-12-25T11:33:46.014Z,55.50
2022-12-25T11:34:45.987Z,54.84
2022-12-25T11:35:46.051Z,53.98
2022-12-25T11:36:45.918Z,54.21
2022-12-25T11:37:45.883Z,54.16
2022-12-25T11:38:45.857Z,53.58
2022-12-25T11:39:45.818Z,51.25
2022-12-25T11:40:45.787Z,53.20
2022-12-25T11:41:45.749Z,53.43
2022-12-25T11:42:45.717Z,52.19
2022-12-25T11:43:45.683Z,51.47
2022-12-25T11:44:45.636Z,52.47
2022-12-25T11:45:45.604Z,54.42
2022-12-25T11:46:45.644Z,52.57
2022-12-25T11:47:45.537Z,51.96
2022-12-25T11:48:45.504Z,53.20
2022-12-25T11:49:49.736Z,53.37
2022-12-25T11:50:45.442Z,53.44
2022-12-25T11:51:45.409Z,53.39
2022-12-25T11:52:45.371Z,53.89
2022-12-25T11:53:45.343Z,53.23
2022-12-25T11:54:45.307Z,50.99
2022-12-25T11:55:45.307Z,51.25
2022-12-25T11:56:45.235Z,50.86
2022-12-25T11:57:45.203Z,47.40
2022-12-25T11:58:45.167Z,50.39
2022-12-25T11:59:45.150Z,46.62
2022-12-25T12:00:45.098Z,47.65
2022-12-25T12:01:45.213Z,49.08
2022-12-25T12:02:45.320Z,48.72
2022-12-25T12:03:45.034Z,47.86
2022-12-25T12:04:44.974Z,47.79
2022-12-25T12:05:44.940Z,47.61
2022-12-25T12:06:44.909Z,47.89
2022-12-25T12:07:44.871Z,48.26
2022-12-25T12:08:44.828Z,45.23
2022-12-25T12:09:44.804Z,43.35
2022-12-25T12:10:44.774Z,43.66
2022-12-25T12:11:44.733Z,46.29
2022-12-25T12:12:48.917Z,46.69
2022-12-25T12:13:44.683Z,46.86
2022-12-25T12:14:44.631Z,43.16
2022-12-25T12:15:44.630Z,46.52
2022-12-25T12:16:44.643Z,44.54
2022-12-25T12:17:44.543Z,44.10
2022-12-25T12:18:50.029Z,46.07
2022-12-25T12:19:45.484Z,46.32
2022-12-25T12:20:44.450Z,46.69
2022-12-25T12:21:44.404Z,46.76
2022-12-25T12:22:44.358Z,47.82
2022-12-25T12:23:44.332Z,46.26
2022-12-25T12:24:44.312Z,48.84
2022-12-25T12:25:44.302Z,49.52
2022-12-25T12:26:44.228Z,49.13
2022-12-25T12:27:44.207Z,48.08
2022-12-25T12:28:44.169Z,50.89
2022-12-25T12:29:44.150Z,48.55
2022-12-25T12:30:44.132Z,50.34
2022-12-25T12:31:44.130Z,49.87
2022-12-25T12:32:44.171Z,49.62
2022-12-25T12:33:44.027Z,52.68
2022-12-25T12:34:44.015Z,52.84
2022-12-25T12:35:43.964Z,50.06
2022-12-25T12:36:43.917Z,51.86
2022-12-25T12:37:43.880Z,50.61
2022-12-25T12:38:43.864Z,50.96
2022-12-25T12:39:43.804Z,52.55
2022-12-25T12:40:43.772Z,50.95
2022-12-25T12:41:43.742Z,50.76
2022-12-25T12:42:43.835Z,51.65
2022-12-25T12:43:43.666Z,50.68
2022-12-25T12:44:43.626Z,50.63
2022-12-25T12:45:43.667Z,50.31
2022-12-25T12:46:43.735Z,51.73
2022-12-25T12:47:43.542Z,50.15
2022-12-25T12:48:43.488Z,49.49
2022-12-25T12:49:43.468Z,51.38
2022-12-25T12:50:43.442Z,51.67
2022-12-25T12:51:43.424Z,49.89
2022-12-25T12:52:43.376Z,51.83
2022-12-25T12:53:43.327Z,49.45
2022-12-25T12:54:43.293Z,48.71
2022-12-25T12:55:43.266Z,49.80
2022-12-25T12:56:43.224Z,47.59
2022-12-25T12:57:43.170Z,48.54
2022-12-25T12:58:43.138Z,49.62
2022-12-25T12:59:43.093Z,47.99
2022-12-25T13:00:43.123Z,47.23
2022-12-25T13:01:43.157Z,47.62
2022-12-25T13:02:43.160Z,46.23
2022-12-25T13:03:42.952Z,46.79
2022-12-25T13:04:42.907Z,46.88
2022-12-25T13:05:42.865Z,47.42
2022-12-25T13:06:42.827Z,45.71
2022-12-25T13:07:42.785Z,46.87
2022-12-25T13:08:42.751Z,48.10
2022-12-25T13:09:42.713Z,44.69
2022-12-25T13:10:42.665Z,46.13
2022-12-25T13:11:42.641Z,45.79
2022-12-25T13:12:42.587Z,45.36
2022-12-25T13:13:42.553Z,45.39
2022-12-25T13:14:42.521Z,42.19
2022-12-25T13:15:42.475Z,44.78
2022-12-25T13:16:42.490Z,45.57
2022-12-25T13:17:42.399Z,43.34
2022-12-25T13:18:42.390Z,42.18
2022-12-25T13:19:42.331Z,42.34
2022-12-25T13:20:42.318Z,39.47
2022-12-25T13:21:42.255Z,38.58
2022-12-25T13:22:45.187Z,41.15
2022-12-25T13:24:42.143Z,41.05
2022-12-25T13:29:41.964Z,40.03
2022-12-25T13:49:41.291Z,28.73
2022-12-25T13:50:41.255Z,28.09
2022-12-25T13:51:41.246Z,25.30
2022-12-25T13:52:41.192Z,25.52
2022-12-25T13:53:41.165Z,22.08
2022-12-25T13:54:41.131Z,21.62
2022-12-25T13:55:41.099Z,25.54
2022-12-25T13:56:41.081Z,21.59
2022-12-25T13:57:41.058Z,25.43
2022-12-25T13:58:41.062Z,27.44
2022-12-25T13:59:41.003Z,29.74
2022-12-25T14:00:40.971Z,29.64
2022-12-25T14:01:41.079Z,29.18
2022-12-25T14:02:40.940Z,27.00
2022-12-25T14:03:40.936Z,27.54
2022-12-25T14:04:40.870Z,27.63
2022-12-25T14:05:43.308Z,27.30
2022-12-25T14:06:40.807Z,25.00
2022-12-25T14:07:40.776Z,26.95
2022-12-25T14:08:40.736Z,27.40
2022-12-25T14:09:40.717Z,25.29
2022-12-25T14:10:40.678Z,27.02
2022-12-25T14:11:40.649Z,25.12
2022-12-25T14:12:40.637Z,28.90
2022-12-25T14:13:40.603Z,27.89
2022-12-25T14:14:40.586Z,34.87
2022-12-25T14:15:40.545Z,29.31
2022-12-25T14:16:40.588Z,26.98
2022-12-25T14:17:40.486Z,32.63
2022-12-25T14:18:40.459Z,30.20
2022-12-25T14:19:40.438Z,31.41
2022-12-25T14:20:40.406Z,32.28
2022-12-25T14:21:40.387Z,32.85
2022-12-25T14:22:40.353Z,28.19
2022-12-25T14:23:40.307Z,28.33
2022-12-25T14:24:40.292Z,31.10
2022-12-25T14:25:40.290Z,31.59
2022-12-25T14:26:40.249Z,26.77
2022-12-25T14:27:40.224Z,28.03
2022-12-25T14:28:40.197Z,32.99
2022-12-25T14:29:40.160Z,27.89
2022-12-25T14:30:40.202Z,25.73
2022-12-25T14:31:40.112Z,29.45
